Kingsville, Texas
Current Conditions -  °F | °C
As of 10:56 PM on Monday 26 Jan 2015 (Local Time) from KNQI Reporting Station
Broken Clouds Broken Clouds  
Wind Chill: 51°   Ceiling: 25000
Heat Index: 51°   Visibility: 10mi
Dew Point: 44°   Wind: 7mph
Humidity: 77%   Direction: 200°SSW
Pressure: 30.22"   Gusts: NA
Location:  27.52°N, 97.85°W
Report Text: KNQI 270456Z 20006KT 10SM FEW200 BKN250 11/07 A3022 RMK AO2 SLP230 T01060067 $
Loading
Personal Weather Stations






























Interactive Weather Map New forecast layout! Learn more

10-Day Weather Forecast

Advertisements
Track Severe Weather on mobile